KHIB/HIB METAR and TAF weather

Enter ICAO airport designator
Station Type Date Time Source
KHIB METAR 2021/10/24 21:53 UTC NOAA

KHIB 242153Z AUTO 08010KT 10SM CLR 08/M03 A3004 RMK AO2 SLP192 T00781028


Station Type Date Time Source
KHIB Decoded METAR 2021/10/24 21:53 UTC NOAA

CHISHOLM-HIBBING AIRPORT, MN, United States (KHIB) 47-23N 92-50W 412M
Oct 24, 2021 - 05:53 PM EDT / 2021.10.24 2153 UTC
Wind: from the E (080 degrees) at 12 MPH (10 KT):0
Visibility: 10 mile(s):0
Sky conditions: clear
Temperature: 46.0 F (7.8 C)
Dew Point: 27.0 F (-2.8 C)
Relative Humidity: 47%
Pressure (altimeter): 30.04 in. Hg (1017 hPa)
ob: KHIB 242153Z AUTO 08010KT 10SM CLR 08/M03 A3004 RMK AO2 SLP192 T00781028
cycle: 22

Station Type Date Time Source
KHIB TAF 2021/10/24 21:58 UTC NOAA

TAF
AMD KHIB 242057Z 2421/2518 09009KT P6SM BKN040
FM250000 07006KT P6SM SCT250
FM250900 06006KT P6SM BKN029

Example: see airport list